GMT,Max TemperatureF,Mean TemperatureF,Min TemperatureF,Max Dew PointF,MeanDew PointF,Min DewpointF,Max Humidity, Mean Humidity, Min Humidity, Max Sea Level PressureIn, Mean Sea Level PressureIn, Min Sea Level PressureIn, Max VisibilityMiles, Mean VisibilityMiles, Min VisibilityMiles, Max Wind SpeedMPH, Mean Wind SpeedMPH, Max Gust SpeedMPH,PrecipitationIn, CloudCover, Events, WindDirDegrees
2012-10-1,58,53,48,52,48,43,100,88,67,29.85,29.78,29.74,19,7,6,21,12,29,0.08,5,Rain,233
2012-10-2,55,50,44,52,48,41,100,89,72,29.77,29.62,29.50,19,7,6,24,14,38,0.20,4,Rain,231
2012-10-3,56,48,40,46,42,39,100,84,59,29.65,29.63,29.62,6,6,6,18,11,26,0.01,2,,239
2012-10-4,55,48,41,48,45,41,100,89,67,29.77,29.68,29.59,19,7,5,17,10,,0.00,4,Rain,234
2012-10-5,53,49,45,48,46,44,100,92,72,29.83,29.73,29.59,19,7,6,9,6,,0.08,6,Rain,249
2012-10-6,56,48,39,46,43,39,100,86,63,30.09,29.96,29.83,16,5,0,12,7,,0.00,3,Fog,341
2012-10-7,53,48,43,52,47,43,100,93,82,30.14,30.07,29.95,19,7,2,23,10,30,0.20,7,Fog-Rain,78
2012-10-8,53,52,50,54,52,50,100,99,94,29.95,29.90,29.86,12,4,0,24,17,,0.31,8,Fog-Rain,80
2012-10-9,53,52,50,54,51,48,100,97,88,29.98,29.95,29.92,9,4,1,14,11,,0.00,8,,69
2012-10-10,57,54,50,57,54,51,100,100,100,29.97,29.82,29.65,6,1,0,12,9,,0.04,7,Fog-Rain,121
2012-10-11,54,49,44,57,48,39,100,87,62,29.77,29.62,29.50,6,5,0,29,12,37,0.01,5,Fog-Rain,316
2012-10-12,51,46,41,46,41,37,93,86,76,29.78,29.74,29.68,6,6,4,13,8,24,0.12,2,Rain,263
2012-10-13,53,46,40,43,40,37,93,82,62,29.77,29.72,29.65,6,6,6,13,9,,0.00,3,Rain,281
2012-10-14,54,46,38,45,41,37,100,84,61,29.73,29.68,29.62,6,6,6,18,8,,0.00,4,,301
2012-10-15,52,47,42,52,45,41,100,89,79,29.70,29.52,29.36,19,6,3,17,8,,0.16,5,Rain,242
2012-10-16,54,48,41,50,44,39,100,84,60,29.56,29.43,29.15,10,6,6,26,14,29,0.08,4,Rain,203
2012-10-17,53,50,46,50,49,46,100,95,87,29.14,28.96,28.85,16,6,3,31,18,40,0.24,6,Rain,174
2012-10-18,56,50,45,50,47,45,100,91,72,29.59,29.28,28.80,16,7,6,15,10,,0.00,3,,262
2012-10-19,52,48,45,49,48,46,100,93,82,29.79,29.71,29.59,19,7,5,13,8,,0.00,6,,326
2012-10-20,56,51,46,52,50,46,100,94,78,29.95,29.87,29.77,19,7,6,15,6,,0.00,6,Fog,174
2012-10-21,56,53,50,54,52,50,100,95,81,30.04,29.99,29.95,12,6,6,18,13,,0.00,5,,128
2012-10-22,55,52,50,54,52,50,100,96,82,30.21,30.12,30.01,12,6,5,15,10,,0.00,6,Rain,100
2012-10-23,56,54,51,54,53,52,100,96,84,30.30,30.26,30.21,7,5,4,10,6,,0.00,7,Rain,56
2012-10-24,54,52,51,54,53,52,100,98,94,30.24,30.12,30.04,6,4,1,15,10,,0.08,7,Rain,31
2012-10-25,57,54,50,54,51,48,100,92,74,30.05,29.98,29.95,16,6,2,17,14,,0.04,6,Rain,48
2012-10-26,47,41,35,48,39,27,100,83,61,30.15,30.04,29.98,9,5,1,22,16,,0.00,5,Rain,27
2012-10-27,45,38,32,34,30,27,93,72,49,30.38,30.29,30.15,6,6,6,15,11,,0.00,2,,329
2012-10-28,48,42,36,45,40,33,100,87,68,30.30,29.98,29.71,19,7,3,18,10,,0.03,6,Rain,238
2012-10-29,50,44,39,45,42,39,100,92,76,29.89,29.80,29.68,19,6,0,18,10,,0.00,4,Fog-Rain,326
2012-10-30,49,44,38,43,41,37,100,89,67,29.92,29.68,29.33,19,7,6,15,8,,0.00,5,Rain,255
2012-10-31,47,41,35,46,41,34,100,91,81,29.32,28.97,28.82,12,6,3,25,13,,0.20,5,Rain,237